createdAt,value
2018-10-05T00:02:05.797Z,12.40
2018-10-05T00:04:33.011Z,12.40
2018-10-05T00:07:00.227Z,12.30
2018-10-05T00:09:27.405Z,12.30
2018-10-05T00:11:54.614Z,12.20
2018-10-05T00:14:21.801Z,12.20
2018-10-05T00:16:49.014Z,12.20
2018-10-05T00:19:16.217Z,12.10
2018-10-05T00:21:43.413Z,12.00
2018-10-05T00:24:10.577Z,12.00
2018-10-05T00:26:37.758Z,11.90
2018-10-05T00:29:04.977Z,12.00
2018-10-05T00:31:32.377Z,12.00
2018-10-05T00:33:59.563Z,11.90
2018-10-05T00:36:26.742Z,11.90
2018-10-05T00:38:53.951Z,11.90
2018-10-05T00:41:21.126Z,11.80
2018-10-05T00:43:48.330Z,11.80
2018-10-05T00:46:15.521Z,11.80
2018-10-05T00:48:42.696Z,11.80
2018-10-05T00:51:09.962Z,11.80
2018-10-05T00:53:37.164Z,11.70
2018-10-05T00:56:04.339Z,11.70
2018-10-05T00:58:31.549Z,11.60
2018-10-05T01:00:58.710Z,11.60
2018-10-05T01:03:25.906Z,11.60
2018-10-05T01:05:53.171Z,11.50
2018-10-05T01:08:20.369Z,11.40
2018-10-05T01:10:47.581Z,11.40
2018-10-05T01:13:14.774Z,11.30
2018-10-05T01:15:41.978Z,11.30
2018-10-05T01:18:09.286Z,11.20
2018-10-05T01:20:36.480Z,11.20
2018-10-05T01:23:03.690Z,11.20
2018-10-05T01:25:30.914Z,11.20
2018-10-05T01:27:58.105Z,11.10
2018-10-05T01:30:25.281Z,11.10
2018-10-05T01:32:52.509Z,11.00
2018-10-05T01:35:19.721Z,11.00
2018-10-05T01:37:46.911Z,11.00
2018-10-05T01:40:14.114Z,10.90
2018-10-05T01:42:41.286Z,10.90
2018-10-05T01:45:08.505Z,10.90
2018-10-05T01:47:35.765Z,10.90
2018-10-05T01:50:03.017Z,10.90
2018-10-05T01:52:30.205Z,10.90
2018-10-05T01:54:57.686Z,10.80
2018-10-05T01:57:24.995Z,10.80
2018-10-05T01:59:52.181Z,10.70
2018-10-05T02:02:19.361Z,10.70
2018-10-05T02:04:46.610Z,10.60
2018-10-05T02:07:13.839Z,10.70
2018-10-05T02:09:41.050Z,10.70
2018-10-05T02:12:08.262Z,10.60
2018-10-05T02:14:35.467Z,10.60
2018-10-05T02:17:02.670Z,10.60
2018-10-05T02:19:29.892Z,10.60
2018-10-05T02:21:57.135Z,10.60
2018-10-05T02:24:24.326Z,10.60
2018-10-05T02:26:51.538Z,10.60
2018-10-05T02:29:18.805Z,10.50
2018-10-05T02:31:45.957Z,10.40
2018-10-05T02:34:13.273Z,10.40
2018-10-05T02:36:40.502Z,10.40
2018-10-05T02:39:08.981Z,10.40
2018-10-05T02:41:36.367Z,10.40
2018-10-05T02:44:03.530Z,10.40
2018-10-05T02:46:30.744Z,10.30
2018-10-05T02:48:57.949Z,10.30
2018-10-05T02:51:25.197Z,10.30
2018-10-05T02:53:52.435Z,10.30
2018-10-05T02:56:19.633Z,10.30
2018-10-05T02:58:46.827Z,10.30
2018-10-05T03:01:25.509Z,10.30
2018-10-05T03:03:52.781Z,10.30
2018-10-05T03:06:19.958Z,10.20
2018-10-05T03:08:47.165Z,10.20
2018-10-05T03:11:14.442Z,10.10
2018-10-05T03:13:41.634Z,10.10
2018-10-05T03:16:08.827Z,10.10
2018-10-05T03:18:36.034Z,10.00
2018-10-05T03:21:03.232Z,10.00
2018-10-05T03:23:30.421Z,10.00
2018-10-05T03:25:57.618Z,10.00
2018-10-05T03:28:24.889Z,10.00
2018-10-05T03:30:52.169Z,9.90
2018-10-05T03:33:19.485Z,9.90
2018-10-05T03:35:46.685Z,9.80
2018-10-05T03:38:13.865Z,9.80
2018-10-05T03:40:41.048Z,9.80
2018-10-05T03:43:08.313Z,9.70
2018-10-05T03:45:35.532Z,9.70
2018-10-05T03:48:02.714Z,9.70
2018-10-05T03:50:29.928Z,9.60
2018-10-05T03:52:57.185Z,9.60
2018-10-05T03:55:24.381Z,9.50
2018-10-05T03:57:51.673Z,9.50
2018-10-05T04:00:18.872Z,9.40
2018-10-05T04:02:46.133Z,9.40
2018-10-05T04:05:13.289Z,9.40
2018-10-05T04:07:40.490Z,9.30
2018-10-05T04:10:07.809Z,9.30
2018-10-05T04:12:35.046Z,9.20
2018-10-05T04:15:02.274Z,9.10
2018-10-05T04:17:29.489Z,9.10
2018-10-05T04:19:56.790Z,9.10
2018-10-05T04:22:27.833Z,9.10
2018-10-05T04:24:55.045Z,9.00
2018-10-05T04:27:22.376Z,9.00
2018-10-05T04:29:49.590Z,9.00
2018-10-05T04:32:16.805Z,9.10
2018-10-05T04:34:44.109Z,9.10
2018-10-05T04:37:11.360Z,9.10
2018-10-05T04:39:38.545Z,9.00
2018-10-05T04:42:05.857Z,9.00
2018-10-05T04:44:33.110Z,9.00
2018-10-05T04:47:00.393Z,9.10
2018-10-05T04:49:27.703Z,9.00
2018-10-05T04:51:54.913Z,9.00
2018-10-05T04:54:22.190Z,9.00
2018-10-05T04:56:49.521Z,9.00
2018-10-05T04:59:16.662Z,8.90
2018-10-05T05:01:43.978Z,8.90
2018-10-05T05:04:11.207Z,8.90
2018-10-05T05:06:38.455Z,8.90
2018-10-05T05:09:05.730Z,8.80
2018-10-05T05:11:32.994Z,8.80
2018-10-05T05:14:00.229Z,8.80
2018-10-05T05:16:27.463Z,8.80
2018-10-05T05:18:54.725Z,8.80
2018-10-05T05:21:21.981Z,8.70
2018-10-05T05:23:49.199Z,8.70
2018-10-05T05:26:16.430Z,8.70
2018-10-05T05:28:43.901Z,8.70
2018-10-05T05:31:11.210Z,8.70
2018-10-05T05:33:38.682Z,8.70
2018-10-05T05:36:07.043Z,8.70
2018-10-05T05:38:34.274Z,8.70
2018-10-05T05:41:01.453Z,8.70
2018-10-05T05:43:28.782Z,8.70
2018-10-05T05:45:55.971Z,8.70
2018-10-05T05:48:23.181Z,8.80
2018-10-05T05:50:50.357Z,8.80
2018-10-05T05:53:17.640Z,8.80
2018-10-05T05:55:44.965Z,8.80
2018-10-05T05:58:12.142Z,8.80
2018-10-05T06:00:39.362Z,8.80
2018-10-05T06:03:06.631Z,8.90
2018-10-05T06:05:33.842Z,8.90
2018-10-05T06:08:01.081Z,9.00
2018-10-05T06:10:28.295Z,9.00
2018-10-05T06:12:55.477Z,9.10
2018-10-05T06:15:22.727Z,9.20
2018-10-05T06:17:49.938Z,9.20
2018-10-05T06:20:17.197Z,9.40
2018-10-05T06:22:44.398Z,9.50
2018-10-05T06:25:11.581Z,9.50
2018-10-05T06:27:38.786Z,9.60
2018-10-05T06:30:06.095Z,9.80
2018-10-05T06:32:33.390Z,9.90
2018-10-05T06:35:00.581Z,10.00
2018-10-05T06:37:29.282Z,10.00
2018-10-05T06:39:56.822Z,10.10
2018-10-05T06:42:24.249Z,10.20
2018-10-05T06:44:51.397Z,10.30
2018-10-05T06:47:18.591Z,10.40
2018-10-05T06:49:45.899Z,10.50
2018-10-05T06:52:13.093Z,10.60
2018-10-05T06:54:40.302Z,10.70
2018-10-05T06:57:08.333Z,10.80
2018-10-05T06:59:35.526Z,10.80
2018-10-05T07:02:02.731Z,10.90
2018-10-05T07:04:29.985Z,11.00
2018-10-05T07:06:57.238Z,11.10
2018-10-05T07:09:24.418Z,11.20
2018-10-05T07:11:51.614Z,11.40
2018-10-05T07:14:18.849Z,11.50
2018-10-05T07:16:46.081Z,11.50
2018-10-05T07:19:13.274Z,11.60
2018-10-05T07:21:40.644Z,11.60
2018-10-05T07:24:07.933Z,11.70
2018-10-05T07:26:35.141Z,11.80
2018-10-05T07:29:02.345Z,11.90
2018-10-05T07:31:29.518Z,12.00
2018-10-05T07:33:56.745Z,12.10
2018-10-05T07:36:24.012Z,12.20
2018-10-05T07:38:51.272Z,12.30
2018-10-05T07:41:18.558Z,12.40
2018-10-05T07:43:46.811Z,12.50
2018-10-05T07:46:14.073Z,12.50
2018-10-05T07:48:41.326Z,12.70
2018-10-05T07:51:08.616Z,12.80
2018-10-05T07:53:35.978Z,12.90
2018-10-05T07:56:03.347Z,13.10
2018-10-05T07:58:30.617Z,13.10
2018-10-05T08:00:57.825Z,13.30
2018-10-05T08:03:25.049Z,13.40
2018-10-05T08:05:52.357Z,13.50
2018-10-05T08:08:19.562Z,13.50
2018-10-05T08:10:46.886Z,13.60
2018-10-05T08:13:14.050Z,13.70
2018-10-05T08:15:41.250Z,13.80
2018-10-05T08:18:08.421Z,13.90
2018-10-05T08:20:35.681Z,14.00
2018-10-05T08:23:02.870Z,14.10
2018-10-05T08:25:30.126Z,14.10
2018-10-05T08:27:57.480Z,14.10
2018-10-05T08:30:24.709Z,14.20
2018-10-05T08:32:52.022Z,14.30
2018-10-05T08:35:19.341Z,14.40
2018-10-05T08:37:46.553Z,14.50
2018-10-05T08:40:13.918Z,14.70
2018-10-05T08:42:41.009Z,14.80
2018-10-05T08:45:08.333Z,15.00
2018-10-05T08:47:35.522Z,15.10
2018-10-05T08:50:02.941Z,15.20
2018-10-05T08:52:30.442Z,15.30
2018-10-05T08:54:57.707Z,15.40
2018-10-05T08:57:25.154Z,15.50
2018-10-05T08:59:52.419Z,15.70
2018-10-05T09:02:19.579Z,15.80
2018-10-05T09:04:46.735Z,15.90
2018-10-05T09:07:13.917Z,15.90
2018-10-05T09:09:41.207Z,16.00
2018-10-05T09:12:08.438Z,16.10
2018-10-05T09:14:35.709Z,16.10
2018-10-05T09:17:02.921Z,16.20
2018-10-05T09:19:30.107Z,16.30
2018-10-05T09:21:57.319Z,16.40
2018-10-05T09:24:24.508Z,16.40
2018-10-05T09:26:51.669Z,16.50
2018-10-05T09:29:18.942Z,16.50
2018-10-05T09:31:46.129Z,16.60
2018-10-05T09:34:13.374Z,16.80
2018-10-05T09:36:40.629Z,17.00
2018-10-05T09:39:08.030Z,17.00
2018-10-05T09:41:35.326Z,17.20
2018-10-05T09:44:02.542Z,17.20
2018-10-05T09:46:29.850Z,17.30
2018-10-05T09:48:57.029Z,17.20
2018-10-05T09:51:24.218Z,17.30
2018-10-05T09:53:51.405Z,17.50
2018-10-05T09:56:18.674Z,17.70
2018-10-05T09:58:45.829Z,17.60
2018-10-05T10:01:18.811Z,17.70
2018-10-05T10:03:45.957Z,17.80
2018-10-05T10:06:13.117Z,17.90
2018-10-05T10:08:40.354Z,18.00
2018-10-05T10:11:07.536Z,18.10
2018-10-05T10:13:34.914Z,18.20
2018-10-05T10:16:02.113Z,18.20
2018-10-05T10:18:29.268Z,18.30
2018-10-05T10:20:56.622Z,18.30
2018-10-05T10:23:23.771Z,18.30
2018-10-05T10:25:50.933Z,18.30
2018-10-05T10:28:18.324Z,18.30
2018-10-05T10:30:45.516Z,18.40
2018-10-05T10:33:12.685Z,18.40
2018-10-05T10:35:39.821Z,18.50
2018-10-05T10:38:07.134Z,18.50
2018-10-05T10:40:34.309Z,18.70
2018-10-05T10:43:01.486Z,18.80
2018-10-05T10:45:28.725Z,18.90
2018-10-05T10:47:56.014Z,18.90
2018-10-05T10:50:23.205Z,19.10
2018-10-05T10:52:50.357Z,19.10
2018-10-05T10:55:17.570Z,19.10
2018-10-05T10:57:44.738Z,19.10
2018-10-05T11:00:12.489Z,19.30
2018-10-05T11:02:39.808Z,19.30
2018-10-05T11:05:07.092Z,19.30
2018-10-05T11:07:34.255Z,19.30
2018-10-05T11:10:01.500Z,19.40
2018-10-05T11:12:28.721Z,19.50
2018-10-05T11:14:55.998Z,19.60
2018-10-05T11:17:23.242Z,19.60
2018-10-05T11:19:50.417Z,19.60
2018-10-05T11:22:17.608Z,19.70
2018-10-05T11:24:44.807Z,19.70
2018-10-05T11:27:12.122Z,19.70
2018-10-05T11:29:40.513Z,19.80
2018-10-05T11:32:07.784Z,19.80
2018-10-05T11:34:34.935Z,19.80
2018-10-05T11:37:02.110Z,20.00
2018-10-05T11:39:29.668Z,20.00
2018-10-05T11:41:56.915Z,20.10
2018-10-05T11:44:24.301Z,20.10
2018-10-05T11:46:51.488Z,20.10
2018-10-05T11:49:18.759Z,20.30
2018-10-05T11:51:45.877Z,20.50
2018-10-05T11:54:13.068Z,20.60
2018-10-05T11:56:40.298Z,20.70
2018-10-05T11:59:07.482Z,20.70
2018-10-05T12:01:34.738Z,20.70
2018-10-05T12:04:01.881Z,20.80
2018-10-05T12:06:29.046Z,21.00
2018-10-05T12:08:56.641Z,21.00
2018-10-05T12:11:23.825Z,21.20
2018-10-05T12:13:51.100Z,21.20
2018-10-05T12:16:18.230Z,21.40
2018-10-05T12:18:45.685Z,21.70
2018-10-05T12:21:12.918Z,22.60
2018-10-05T12:23:40.098Z,24.00
2018-10-05T12:26:07.570Z,25.70
2018-10-05T12:28:34.734Z,27.40
2018-10-05T12:31:02.072Z,28.30
2018-10-05T12:33:29.301Z,28.90
2018-10-05T12:35:56.500Z,30.30
2018-10-05T12:38:23.750Z,31.20
2018-10-05T12:40:51.031Z,32.40
2018-10-05T12:43:18.170Z,32.40
2018-10-05T12:45:45.359Z,32.30
2018-10-05T12:48:12.533Z,32.70
2018-10-05T12:50:39.866Z,32.90
2018-10-05T12:53:07.050Z,33.50
2018-10-05T12:55:34.231Z,33.60
2018-10-05T12:58:01.451Z,33.90
2018-10-05T13:00:28.560Z,33.90
2018-10-05T13:02:55.926Z,33.60
2018-10-05T13:05:23.123Z,34.10
2018-10-05T13:07:50.334Z,34.40
2018-10-05T13:10:17.579Z,34.60
2018-10-05T13:12:44.846Z,34.50
2018-10-05T13:15:12.102Z,34.00
2018-10-05T13:17:39.302Z,33.70
2018-10-05T13:20:06.614Z,34.10
2018-10-05T13:22:34.818Z,34.20
2018-10-05T13:25:01.998Z,34.50
2018-10-05T13:27:29.195Z,34.00
2018-10-05T13:29:56.389Z,33.90
2018-10-05T13:32:23.816Z,34.00
2018-10-05T13:34:51.043Z,34.00
2018-10-05T13:37:18.391Z,34.30
2018-10-05T13:39:45.585Z,33.50
2018-10-05T13:42:12.856Z,34.10
2018-10-05T13:44:40.150Z,33.90
2018-10-05T13:47:07.437Z,33.30
2018-10-05T13:49:34.609Z,32.80
2018-10-05T13:52:01.802Z,32.80
2018-10-05T13:54:29.000Z,33.50
2018-10-05T13:56:56.175Z,33.60
2018-10-05T13:59:23.433Z,33.90
2018-10-05T14:01:50.625Z,34.30
2018-10-05T14:04:17.889Z,34.30
2018-10-05T14:06:45.049Z,34.70
2018-10-05T14:09:12.280Z,34.80
2018-10-05T14:11:39.554Z,33.70
2018-10-05T14:14:06.810Z,33.20
2018-10-05T14:16:34.190Z,32.60
2018-10-05T14:19:01.726Z,33.00
2018-10-05T14:21:29.021Z,32.90
2018-10-05T14:23:56.266Z,33.40
2018-10-05T14:26:23.474Z,33.50
2018-10-05T14:28:50.739Z,33.80
2018-10-05T14:31:18.040Z,33.90
2018-10-05T14:33:45.256Z,33.30
2018-10-05T14:36:12.505Z,32.90
2018-10-05T14:38:39.793Z,33.40
2018-10-05T14:41:07.050Z,33.00
2018-10-05T14:43:34.278Z,32.60
2018-10-05T14:46:01.569Z,32.70
2018-10-05T14:48:28.738Z,32.30
2018-10-05T14:50:56.099Z,32.60
2018-10-05T14:53:23.382Z,32.30
2018-10-05T14:55:50.617Z,32.60
2018-10-05T14:58:18.010Z,33.20
2018-10-05T15:00:45.218Z,33.40
2018-10-05T15:03:43.818Z,33.30
2018-10-05T15:06:10.987Z,33.10
2018-10-05T15:08:38.146Z,32.00
2018-10-05T15:11:05.427Z,32.70
2018-10-05T15:13:32.608Z,33.10
2018-10-05T15:15:59.870Z,33.40
2018-10-05T15:18:27.038Z,33.80
2018-10-05T15:20:54.238Z,33.70
2018-10-05T15:23:21.466Z,33.70
2018-10-05T15:25:48.678Z,33.00
2018-10-05T15:28:15.873Z,32.50
2018-10-05T15:30:43.081Z,32.40
2018-10-05T15:33:10.280Z,32.30
2018-10-05T15:35:37.481Z,32.20
2018-10-05T15:38:04.923Z,32.50
2018-10-05T15:40:32.106Z,32.20
2018-10-05T15:42:59.346Z,31.40
2018-10-05T15:45:26.562Z,29.90
2018-10-05T15:47:53.735Z,29.10
2018-10-05T15:50:20.914Z,28.20
2018-10-05T15:52:48.415Z,27.30
2018-10-05T15:55:15.743Z,26.70
2018-10-05T15:57:43.633Z,26.20
2018-10-05T16:00:10.874Z,25.90
2018-10-05T16:02:38.094Z,25.70
2018-10-05T16:05:05.389Z,25.70
2018-10-05T16:07:32.648Z,25.70
2018-10-05T16:09:59.877Z,25.60
2018-10-05T16:12:27.163Z,25.30
2018-10-05T16:14:54.324Z,24.90
2018-10-05T16:17:21.605Z,24.40
2018-10-05T16:19:48.831Z,24.10
2018-10-05T16:22:16.258Z,23.80
2018-10-05T16:24:44.342Z,23.40
2018-10-05T16:27:12.200Z,23.10
2018-10-05T16:29:39.505Z,22.90
2018-10-05T16:32:07.620Z,22.60
2018-10-05T16:34:35.078Z,22.30
2018-10-05T16:37:02.631Z,22.10
2018-10-05T16:39:29.953Z,21.80
2018-10-05T16:41:57.244Z,21.60
2018-10-05T16:44:24.451Z,21.40
2018-10-05T16:46:51.736Z,21.20
2018-10-05T16:49:18.953Z,20.90
2018-10-05T16:51:46.178Z,20.70
2018-10-05T16:54:13.462Z,20.50
2018-10-05T16:56:40.690Z,20.40
2018-10-05T16:59:08.056Z,20.10
2018-10-05T17:01:35.893Z,20.00
2018-10-05T17:04:03.187Z,19.70
2018-10-05T17:06:30.698Z,19.50
2018-10-05T17:09:04.257Z,19.30
2018-10-05T17:11:31.621Z,19.10
2018-10-05T17:13:58.821Z,19.00
2018-10-05T17:16:25.990Z,18.70
2018-10-05T17:18:53.184Z,18.50
2018-10-05T17:21:20.383Z,18.40
2018-10-05T17:23:47.772Z,18.10
2018-10-05T17:26:14.980Z,18.00
2018-10-05T17:28:42.270Z,17.80
2018-10-05T17:31:09.457Z,17.60
2018-10-05T17:33:36.650Z,17.50
2018-10-05T17:36:04.230Z,17.40
2018-10-05T17:38:31.582Z,17.20
2018-10-05T17:40:58.877Z,17.10
2018-10-05T17:43:26.633Z,17.00
2018-10-05T17:45:54.086Z,16.90
2018-10-05T17:48:21.638Z,16.80
2018-10-05T17:50:49.170Z,16.70
2018-10-05T17:53:16.768Z,16.60
2018-10-05T17:55:44.280Z,16.50
2018-10-05T17:58:11.487Z,16.40
2018-10-05T18:00:38.861Z,16.30
2018-10-05T18:03:06.312Z,16.20
2018-10-05T18:05:33.543Z,16.10
2018-10-05T18:08:00.838Z,16.00
2018-10-05T18:10:28.010Z,15.90
2018-10-05T18:12:55.165Z,15.80
2018-10-05T18:15:22.322Z,15.60
2018-10-05T18:17:49.594Z,15.60
2018-10-05T18:20:16.812Z,15.50
2018-10-05T18:22:43.985Z,15.40
2018-10-05T18:25:11.163Z,15.30
2018-10-05T18:27:38.326Z,15.30
2018-10-05T18:30:05.582Z,15.20
2018-10-05T18:32:32.738Z,15.10
2018-10-05T18:35:00.014Z,15.00
2018-10-05T18:37:27.245Z,14.90
2018-10-05T18:39:54.417Z,14.70
2018-10-05T18:42:21.743Z,14.70
2018-10-05T18:44:49.003Z,14.70
2018-10-05T18:47:16.178Z,14.60
2018-10-05T18:49:43.515Z,14.50
2018-10-05T18:52:10.684Z,14.50
2018-10-05T18:54:37.873Z,14.40
2018-10-05T18:57:18.013Z,14.40
2018-10-05T18:59:45.304Z,14.30
2018-10-05T19:02:13.442Z,14.20
2018-10-05T19:04:40.824Z,14.20
2018-10-05T19:07:08.254Z,14.10
2018-10-05T19:09:35.411Z,14.00
2018-10-05T19:12:02.736Z,14.00
2018-10-05T19:14:29.913Z,13.90
2018-10-05T19:16:57.090Z,13.90
2018-10-05T19:19:24.328Z,13.80
2018-10-05T19:21:51.519Z,13.80
2018-10-05T19:24:18.708Z,13.70
2018-10-05T19:26:46.041Z,13.70
2018-10-05T19:29:13.530Z,13.60
2018-10-05T19:31:40.974Z,13.60
2018-10-05T19:34:08.151Z,13.50
2018-10-05T19:36:35.574Z,13.50
2018-10-05T19:39:04.026Z,13.40
2018-10-05T19:41:31.210Z,13.40
2018-10-05T19:43:58.477Z,13.30
2018-10-05T19:46:25.649Z,13.20
2018-10-05T19:48:52.882Z,13.20
2018-10-05T19:51:20.062Z,13.10
2018-10-05T19:53:47.423Z,13.00
2018-10-05T19:56:14.521Z,13.00
2018-10-05T19:58:41.996Z,12.90
2018-10-05T20:01:09.153Z,12.90
2018-10-05T20:03:36.305Z,12.90
2018-10-05T20:06:03.585Z,12.80
2018-10-05T20:08:30.735Z,12.70
2018-10-05T20:10:58.153Z,12.70
2018-10-05T20:13:25.322Z,12.60
2018-10-05T20:15:52.528Z,12.60
2018-10-05T20:18:19.755Z,12.50
2018-10-05T20:20:46.922Z,12.50
2018-10-05T20:23:14.274Z,12.40
2018-10-05T20:25:41.609Z,12.30
2018-10-05T20:28:08.918Z,12.30
2018-10-05T20:30:36.615Z,12.20
2018-10-05T20:33:03.777Z,12.10
2018-10-05T20:35:30.973Z,12.10
2018-10-05T20:37:58.178Z,12.10
2018-10-05T20:40:25.545Z,12.00
2018-10-05T20:42:52.857Z,12.00
2018-10-05T20:45:20.058Z,11.80
2018-10-05T20:47:47.217Z,11.80
2018-10-05T20:50:14.402Z,11.80
2018-10-05T20:52:41.658Z,11.80
2018-10-05T20:55:08.908Z,11.70
2018-10-05T20:57:36.082Z,11.70
2018-10-05T21:00:03.689Z,11.70
2018-10-05T21:02:30.974Z,11.60
2018-10-05T21:04:58.542Z,11.60
2018-10-05T21:07:25.724Z,11.50
2018-10-05T21:09:53.034Z,11.50
2018-10-05T21:12:20.264Z,11.50
2018-10-05T21:14:47.511Z,11.50
2018-10-05T21:17:14.690Z,11.40
2018-10-05T21:19:41.898Z,11.40
2018-10-05T21:22:09.082Z,11.30
2018-10-05T21:24:36.256Z,11.20
2018-10-05T21:27:03.433Z,11.20
2018-10-05T21:29:30.690Z,11.20
2018-10-05T21:31:58.222Z,11.10
2018-10-05T21:34:25.542Z,11.00
2018-10-05T21:36:52.773Z,11.00
2018-10-05T21:39:20.065Z,11.00
2018-10-05T21:41:47.314Z,11.00
2018-10-05T21:44:14.540Z,10.90
2018-10-05T21:46:41.830Z,10.90
2018-10-05T21:49:09.774Z,10.90
2018-10-05T21:51:37.238Z,10.90
2018-10-05T21:54:04.487Z,10.90
2018-10-05T21:56:31.762Z,10.80
2018-10-05T21:58:59.022Z,10.80
2018-10-05T22:01:26.258Z,10.80
2018-10-05T22:03:53.537Z,10.70
2018-10-05T22:06:20.778Z,10.70
2018-10-05T22:08:48.009Z,10.50
2018-10-05T22:11:15.474Z,10.50
2018-10-05T22:13:43.125Z,10.50
2018-10-05T22:16:11.005Z,10.50
2018-10-05T22:18:38.245Z,10.50
2018-10-05T22:21:05.486Z,10.50
2018-10-05T22:23:32.842Z,10.40
2018-10-05T22:26:00.130Z,10.40
2018-10-05T22:28:27.357Z,10.40
2018-10-05T22:30:55.127Z,10.30
2018-10-05T22:33:22.438Z,10.30
2018-10-05T22:35:49.821Z,10.30
2018-10-05T22:38:17.070Z,10.20
2018-10-05T22:40:44.333Z,10.20
2018-10-05T22:43:11.670Z,10.20
2018-10-05T22:45:38.930Z,10.10
2018-10-05T22:48:06.506Z,10.20
2018-10-05T22:50:33.856Z,10.10
2018-10-05T22:53:01.091Z,10.10
2018-10-05T22:55:28.373Z,10.10
2018-10-05T22:57:55.598Z,10.10
2018-10-05T23:00:22.744Z,10.10
2018-10-05T23:02:50.007Z,10.10
2018-10-05T23:05:17.473Z,10.00
2018-10-05T23:07:44.769Z,10.00
2018-10-05T23:10:12.027Z,10.00
2018-10-05T23:12:39.306Z,10.00
2018-10-05T23:15:06.656Z,10.00
2018-10-05T23:17:34.045Z,10.00
2018-10-05T23:20:01.376Z,10.00
2018-10-05T23:22:28.710Z,10.00
2018-10-05T23:24:56.146Z,10.00
2018-10-05T23:27:23.418Z,10.00
2018-10-05T23:29:51.168Z,10.00
2018-10-05T23:32:18.932Z,9.90
2018-10-05T23:34:46.532Z,9.90
2018-10-05T23:37:14.078Z,9.90
2018-10-05T23:39:41.399Z,9.90
2018-10-05T23:42:09.759Z,9.90
2018-10-05T23:44:37.099Z,9.90
2018-10-05T23:47:04.851Z,9.90
2018-10-05T23:49:32.201Z,9.90
2018-10-05T23:52:42.893Z,9.90
2018-10-05T23:55:10.090Z,9.80
2018-10-05T23:57:38.276Z,9.70
